Time;durP1;ratioP1;P1;durP2;ratioP2;P2;SDS_P1;SDS_P2;PMS_P1;PMS_P2;Temp;Humidity;BMP_temperature;BMP_pressure;BME280_temperature;BME280_humidity;BME280_pressure;Samples;Min_cycle;Max_cycle;Signal;HPM_P1;HPM_P2
2022/06/17 00:00:51;;;;;;;13.93;10.38;;;14.90;99.90;;;;;;4917675;29;20020;-73
2022/06/17 00:03:17;;;;;;;12.90;9.55;;;14.80;99.90;;;;;;4925923;29;20118;-73
2022/06/17 00:05:44;;;;;;;14.38;10.73;;;14.70;99.90;;;;;;4921626;29;20059;-73
2022/06/17 00:08:16;;;;;;;12.90;11.10;;;14.70;99.90;;;;;;4914932;29;20028;-73
2022/06/17 00:10:41;;;;;;;15.75;11.50;;;14.60;99.90;;;;;;4920690;29;20042;-73
2022/06/17 00:13:12;;;;;;;13.65;10.45;;;14.50;99.90;;;;;;4917797;29;20138;-73
2022/06/17 00:15:37;;;;;;;14.20;9.45;;;14.50;99.90;;;;;;4931551;28;20109;-73
2022/06/17 00:18:03;;;;;;;13.80;10.45;;;14.50;99.90;;;;;;4926501;29;20372;-72
2022/06/17 00:20:30;;;;;;;13.15;9.82;;;14.40;99.90;;;;;;4910300;29;20035;-73
2022/06/17 00:22:55;;;;;;;15.05;9.68;;;14.40;99.90;;;;;;4923625;29;20538;-73
2022/06/17 00:25:35;;;;;;;16.45;9.68;;;14.30;99.90;;;;;;4927197;29;20119;-72
2022/06/17 00:28:01;;;;;;;12.23;9.30;;;14.20;99.90;;;;;;4925925;29;20059;-73
2022/06/17 00:30:30;;;;;;;14.77;10.93;;;14.20;99.90;;;;;;4912243;29;20040;-73
2022/06/17 00:33:00;;;;;;;13.35;10.70;;;14.20;99.90;;;;;;4923746;29;20095;-72
2022/06/17 00:35:36;;;;;;;12.05;10.20;;;14.20;99.90;;;;;;4926192;29;20042;-73
2022/06/17 00:38:03;;;;;;;14.95;10.32;;;14.10;99.90;;;;;;4926191;29;20125;-73
2022/06/17 00:40:32;;;;;;;16.15;9.88;;;14.10;99.90;;;;;;4924383;29;20028;-72
2022/06/17 00:43:02;;;;;;;13.40;10.63;;;14.00;99.90;;;;;;4920973;29;20063;-73
2022/06/17 00:45:37;;;;;;;14.30;11.35;;;13.90;99.90;;;;;;4923950;29;20379;-73
2022/06/17 00:48:11;;;;;;;16.20;12.57;;;13.90;99.90;;;;;;4930047;29;20032;-73
2022/06/17 00:50:57;;;;;;;17.92;12.25;;;13.80;99.90;;;;;;4906281;29;20031;-73
2022/06/17 00:53:29;;;;;;;15.43;10.90;;;13.80;99.90;;;;;;4908276;29;20419;-73
2022/06/17 00:55:55;;;;;;;13.60;10.60;;;13.70;99.90;;;;;;4922997;29;20036;-73
2022/06/17 00:58:45;;;;;;;14.88;11.57;;;13.60;99.90;;;;;;4923455;29;20410;-73
2022/06/17 01:01:11;;;;;;;14.98;11.25;;;13.60;99.90;;;;;;4914131;29;20035;-73
2022/06/17 01:03:37;;;;;;;16.88;13.68;;;13.50;99.90;;;;;;4918479;29;20036;-73
2022/06/17 01:06:09;;;;;;;13.70;11.10;;;13.50;99.90;;;;;;4912581;29;20094;-72
2022/06/17 01:11:27;;;;;;;12.32;10.50;;;13.50;99.90;;;;;;4925009;29;20566;-73
2022/06/17 01:13:54;;;;;;;11.60;10.32;;;13.50;99.90;;;;;;4925717;29;20067;-73
2022/06/17 01:16:25;;;;;;;12.32;10.68;;;13.50;99.90;;;;;;4925852;29;20027;-73
2022/06/17 01:18:54;;;;;;;12.18;10.05;;;13.50;99.90;;;;;;4923298;29;20078;-72
2022/06/17 01:21:32;;;;;;;12.10;10.70;;;13.40;99.90;;;;;;4910070;29;20071;-73
2022/06/17 01:23:59;;;;;;;11.55;10.23;;;13.40;99.90;;;;;;4906857;29;20036;-72
2022/06/17 01:26:25;;;;;;;15.15;10.77;;;13.30;99.90;;;;;;4918182;29;20036;-73
2022/06/17 01:28:50;;;;;;;19.15;12.40;;;13.30;99.90;;;;;;4929001;29;20051;-73
2022/06/17 01:31:17;;;;;;;17.33;13.02;;;13.30;99.90;;;;;;4927769;29;20130;-73
2022/06/17 01:33:43;;;;;;;15.25;13.23;;;13.30;99.90;;;;;;4922545;29;20063;-73
2022/06/17 01:36:26;;;;;;;16.27;13.57;;;13.20;99.90;;;;;;4928297;29;20121;-73
2022/06/17 01:38:55;;;;;;;14.90;12.45;;;13.20;99.90;;;;;;4916814;29;20114;-73
2022/06/17 01:41:25;;;;;;;12.70;10.98;;;13.10;99.90;;;;;;4927478;29;20042;-73
2022/06/17 01:44:00;;;;;;;15.43;10.48;;;13.10;99.90;;;;;;4928475;29;20043;-73
2022/06/17 01:46:35;;;;;;;15.32;11.20;;;13.10;99.90;;;;;;4928054;29;20040;-73
2022/06/17 01:49:06;;;;;;;15.30;11.88;;;13.10;99.90;;;;;;4927877;29;20070;-73
2022/06/17 01:51:36;;;;;;;14.40;11.43;;;13.10;99.90;;;;;;4919215;29;20711;-73
2022/06/17 01:54:16;;;;;;;14.52;11.10;;;13.00;99.90;;;;;;4910396;29;20079;-73
2022/06/17 01:56:44;;;;;;;14.80;12.55;;;13.00;99.90;;;;;;4912708;29;20086;-73
2022/06/17 01:59:24;;;;;;;17.85;11.80;;;12.90;99.90;;;;;;4912945;29;20517;-72
2022/06/17 02:01:53;;;;;;;15.55;12.98;;;12.90;99.90;;;;;;4910871;29;20286;-73
2022/06/17 02:04:23;;;;;;;16.20;13.43;;;12.80;99.90;;;;;;4917365;29;20032;-72
2022/06/17 02:06:56;;;;;;;17.48;12.73;;;12.80;99.90;;;;;;4927284;29;20031;-73
2022/06/17 02:09:21;;;;;;;16.67;12.00;;;12.80;99.90;;;;;;4920316;29;20798;-73
2022/06/17 02:11:48;;;;;;;15.18;12.60;;;12.80;99.90;;;;;;4924262;29;20052;-73
2022/06/17 02:14:14;;;;;;;14.45;11.77;;;12.80;99.90;;;;;;4927921;29;20051;-74
2022/06/17 02:16:52;;;;;;;13.13;11.38;;;12.80;99.90;;;;;;4926902;29;20039;-73
2022/06/17 02:19:19;;;;;;;14.65;11.05;;;12.80;99.90;;;;;;4912584;29;20060;-73
2022/06/17 02:21:56;;;;;;;15.45;10.57;;;12.80;99.90;;;;;;4920581;29;20243;-73
2022/06/17 02:24:24;;;;;;;16.48;12.07;;;12.70;99.90;;;;;;4924957;29;20047;-73
2022/06/17 02:26:50;;;;;;;14.32;12.65;;;12.70;99.90;;;;;;4926983;29;20387;-74
2022/06/17 02:29:17;;;;;;;21.08;14.73;;;12.70;99.90;;;;;;4921561;29;20664;-73
2022/06/17 02:31:44;;;;;;;21.80;14.93;;;12.70;99.90;;;;;;4907261;29;20040;-73
2022/06/17 02:34:12;;;;;;;16.40;13.10;;;12.60;99.90;;;;;;4908684;29;20047;-73
2022/06/17 02:36:46;;;;;;;18.23;14.98;;;12.50;99.90;;;;;;4912974;29;20688;-73
2022/06/17 02:39:13;;;;;;;18.40;13.63;;;12.50;99.90;;;;;;4926854;29;20115;-73
2022/06/17 02:41:40;;;;;;;20.45;15.50;;;12.40;99.90;;;;;;4927788;29;20554;-74
2022/06/17 02:44:21;;;;;;;22.77;16.30;;;12.40;99.90;;;;;;4926636;29;20384;-73
2022/06/17 02:46:48;;;;;;;22.27;16.30;;;12.30;99.90;;;;;;4913417;29;20024;-73
2022/06/17 02:49:20;;;;;;;26.02;19.27;;;12.30;99.90;;;;;;4908460;29;20266;-73
2022/06/17 02:51:46;;;;;;;22.55;18.58;;;12.30;99.90;;;;;;4908782;29;20076;-73
2022/06/17 02:54:29;;;;;;;24.58;19.27;;;12.30;99.90;;;;;;4908359;29;20024;-73
2022/06/17 02:56:55;;;;;;;25.05;19.83;;;12.30;99.90;;;;;;4908572;29;20190;-73
2022/06/17 02:59:34;;;;;;;19.90;17.67;;;12.30;99.90;;;;;;4917789;29;20035;-73
2022/06/17 03:02:09;;;;;;;19.65;16.58;;;12.30;99.90;;;;;;4911723;29;20754;-73
2022/06/17 03:04:35;;;;;;;19.27;16.65;;;12.20;99.90;;;;;;4924929;29;20638;-73
2022/06/17 03:07:01;;;;;;;21.10;16.88;;;12.20;99.90;;;;;;4927294;29;20028;-74
2022/06/17 03:09:32;;;;;;;24.95;19.65;;;12.30;99.90;;;;;;4925940;29;20086;-73
2022/06/17 03:12:01;;;;;;;22.15;18.38;;;12.20;99.90;;;;;;4927434;29;20053;-73
2022/06/17 03:14:33;;;;;;;22.50;18.15;;;12.20;99.90;;;;;;4927006;29;20280;-73
2022/06/17 03:17:05;;;;;;;22.73;19.23;;;12.20;99.90;;;;;;4925886;29;20036;-73
2022/06/17 03:19:35;;;;;;;23.10;17.35;;;12.20;99.90;;;;;;4920278;29;20024;-73
2022/06/17 03:22:05;;;;;;;21.58;18.15;;;12.20;99.90;;;;;;4923567;29;20515;-73
2022/06/17 03:24:50;;;;;;;24.00;19.90;;;12.20;99.90;;;;;;4926961;29;20035;-74
2022/06/17 03:27:31;;;;;;;29.33;20.63;;;12.30;99.90;;;;;;4925649;29;20038;-73
2022/06/17 03:30:00;;;;;;;23.70;17.60;;;12.30;99.90;;;;;;4927437;29;20074;-73
2022/06/17 03:32:32;;;;;;;20.70;17.08;;;12.30;99.90;;;;;;4925121;29;20348;-73
2022/06/17 03:34:58;;;;;;;19.08;14.85;;;12.30;99.90;;;;;;4926440;29;20032;-73
2022/06/17 03:37:27;;;;;;;18.08;14.63;;;12.20;99.90;;;;;;4913361;29;20507;-73
2022/06/17 03:40:27;;;;;;;33.38;25.63;;;12.20;99.90;;;;;;4907648;29;20531;-73
2022/06/17 03:42:58;;;;;;;19.58;15.55;;;12.30;99.90;;;;;;4903804;29;20052;-73
2022/06/17 03:45:29;;;;;;;23.70;19.27;;;12.30;99.90;;;;;;4917213;29;20023;-74
2022/06/17 03:48:11;;;;;;;19.23;14.43;;;12.30;99.90;;;;;;4925705;29;20032;-73
2022/06/17 03:50:41;;;;;;;25.80;17.38;;;12.30;99.90;;;;;;4925548;29;20455;-73
2022/06/17 03:53:31;;;;;;;26.77;20.85;;;12.20;99.90;;;;;;4921677;29;20044;-73
2022/06/17 03:56:05;;;;;;;23.15;18.70;;;12.30;99.90;;;;;;4907617;29;20032;-74
2022/06/17 03:58:32;;;;;;;23.92;19.15;;;12.20;99.90;;;;;;4907228;29;20052;-73
2022/06/17 04:01:09;;;;;;;24.77;20.15;;;12.30;99.90;;;;;;4911154;29;20032;-74
2022/06/17 04:03:38;;;;;;;28.90;22.65;;;12.30;99.90;;;;;;4924819;29;20536;-73
2022/06/17 04:06:13;;;;;;;28.63;22.58;;;12.30;99.90;;;;;;4926192;29;20087;-74
2022/06/17 04:09:00;;;;;;;26.13;22.05;;;12.40;99.90;;;;;;4922044;29;20039;-74
2022/06/17 04:11:38;;;;;;;30.48;21.10;;;12.40;99.90;;;;;;4913448;29;20032;-73
2022/06/17 04:14:14;;;;;;;28.48;20.75;;;12.50;99.90;;;;;;4926220;29;20227;-73
2022/06/17 04:17:04;;;;;;;24.10;18.60;;;12.50;99.90;;;;;;4925740;29;20488;-73
2022/06/17 04:19:31;;;;;;;20.20;15.93;;;12.60;99.90;;;;;;4924193;29;20909;-74
2022/06/17 04:22:19;;;;;;;15.18;13.20;;;12.70;99.90;;;;;;4925949;29;20478;-73
2022/06/17 04:24:57;;;;;;;19.90;12.77;;;12.80;99.90;;;;;;4923898;29;20046;-73
2022/06/17 04:27:24;;;;;;;13.95;11.25;;;12.90;99.90;;;;;;4920329;29;20040;-73
2022/06/17 04:29:53;;;;;;;14.60;11.27;;;13.00;99.90;;;;;;4906785;29;20028;-74
2022/06/17 04:32:30;;;;;;;14.73;12.18;;;13.10;99.90;;;;;;4922946;29;20148;-73
2022/06/17 04:34:56;;;;;;;13.30;11.25;;;13.20;99.90;;;;;;4925269;29;20032;-73
2022/06/17 04:37:23;;;;;;;10.05;8.35;;;13.20;99.90;;;;;;4926054;29;20441;-73
2022/06/17 04:39:57;;;;;;;9.82;8.82;;;13.30;99.90;;;;;;4925377;29;20036;-74
2022/06/17 04:42:28;;;;;;;9.25;8.35;;;13.30;99.90;;;;;;4923542;29;20091;-74
2022/06/17 04:44:54;;;;;;;;;;;13.40;99.90;;;;;;4914821;29;20075;-73
2022/06/17 04:47:21;;;;;;;8.68;7.07;;;13.40;99.90;;;;;;4906571;29;20527;-73
2022/06/17 04:49:54;;;;;;;8.52;7.68;;;13.50;99.90;;;;;;4906553;29;20040;-73
2022/06/17 04:52:28;;;;;;;10.15;7.65;;;13.50;99.90;;;;;;4912112;29;20195;-74
2022/06/17 04:54:57;;;;;;;9.23;7.30;;;13.50;99.90;;;;;;4916381;29;20499;-73
2022/06/17 04:57:24;;;;;;;8.32;6.82;;;13.50;99.90;;;;;;4917100;29;20071;-74
2022/06/17 04:59:50;;;;;;;9.57;6.65;;;13.60;99.90;;;;;;4916350;29;20166;-73
2022/06/17 05:02:30;;;;;;;7.95;7.20;;;13.60;99.90;;;;;;4915192;29;20028;-73
2022/06/17 05:04:59;;;;;;;7.88;6.93;;;13.60;99.90;;;;;;4924994;29;20045;-73
2022/06/17 05:07:36;;;;;;;8.98;6.28;;;13.70;99.90;;;;;;4925112;29;20051;-73
2022/06/17 05:10:07;;;;;;;6.57;5.88;;;13.80;99.90;;;;;;4924312;29;20039;-73
2022/06/17 05:12:50;;;;;;;7.35;6.50;;;13.80;99.90;;;;;;4923993;29;20051;-73
2022/06/17 05:15:19;;;;;;;7.25;6.05;;;13.90;99.90;;;;;;4923806;29;20503;-73
2022/06/17 05:17:45;;;;;;;8.27;6.35;;;14.00;99.90;;;;;;4924259;29;20077;-73
2022/06/17 05:20:14;;;;;;;6.43;5.82;;;14.00;99.90;;;;;;4906139;29;20036;-73
2022/06/17 05:22:55;;;;;;;9.15;5.82;;;14.10;99.90;;;;;;4915721;29;20098;-73
2022/06/17 05:25:27;;;;;;;8.10;5.63;;;14.10;99.90;;;;;;4917189;29;20820;-73
2022/06/17 05:27:52;;;;;;;;;;;14.20;99.90;;;;;;4920151;29;20814;-73
2022/06/17 05:30:18;;;;;;;6.70;5.10;;;14.30;99.90;;;;;;4907737;29;19911;-74
2022/06/17 05:32:47;;;;;;;5.15;4.75;;;14.50;99.90;;;;;;4908638;29;20040;-74
2022/06/17 05:35:14;;;;;;;5.75;5.18;;;14.50;99.90;;;;;;4919402;29;20040;-73
2022/06/17 05:37:39;;;;;;;5.53;4.93;;;14.70;99.90;;;;;;4905878;29;20050;-73
2022/06/17 05:40:08;;;;;;;5.45;4.93;;;14.80;99.90;;;;;;4906599;29;20029;-74
2022/06/17 05:42:37;;;;;;;5.20;4.63;;;15.00;99.90;;;;;;4925204;29;20043;-73
2022/06/17 05:45:03;;;;;;;5.57;4.75;;;15.00;99.90;;;;;;4922144;29;20043;-74
2022/06/17 05:47:29;;;;;;;5.50;3.83;;;15.10;99.90;;;;;;4925245;29;20035;-74
2022/06/17 05:49:55;;;;;;;5.95;4.65;;;15.20;99.90;;;;;;4924347;29;20504;-73
2022/06/17 05:52:20;;;;;;;8.95;5.93;;;15.30;99.90;;;;;;4918868;29;20119;-73
2022/06/17 05:54:47;;;;;;;6.53;5.38;;;15.50;99.90;;;;;;4906377;29;20534;-71
2022/06/17 05:57:12;;;;;;;6.75;5.45;;;15.50;99.90;;;;;;4922222;29;20471;-73
2022/06/17 05:59:38;;;;;;;8.55;5.93;;;15.60;99.90;;;;;;4923763;29;20034;-73
2022/06/17 06:02:05;;;;;;;6.38;5.60;;;15.70;99.90;;;;;;4910077;29;20032;-73
2022/06/17 06:04:31;;;;;;;6.47;5.88;;;15.90;99.90;;;;;;4918509;29;20115;-74
2022/06/17 06:06:58;;;;;;;7.80;7.00;;;16.00;99.90;;;;;;4920013;29;20121;-73
2022/06/17 06:09:25;;;;;;;8.52;6.20;;;16.20;99.90;;;;;;4909321;29;20037;-74
2022/06/17 06:11:51;;;;;;;10.95;8.85;;;16.20;99.90;;;;;;4916712;29;20048;-74
2022/06/17 06:14:17;;;;;;;9.43;8.43;;;16.50;99.90;;;;;;4908473;29;20058;-73
2022/06/17 06:16:42;;;;;;;14.32;12.82;;;16.70;99.90;;;;;;4922720;29;20039;-74
2022/06/17 06:19:08;;;;;;;14.40;9.68;;;16.80;99.90;;;;;;4917133;29;20479;-74
2022/06/17 06:21:33;;;;;;;10.02;7.80;;;17.00;99.90;;;;;;4925762;29;20039;-73
2022/06/17 06:23:59;;;;;;;11.65;8.68;;;17.00;99.90;;;;;;4918087;29;20128;-74
2022/06/17 06:26:25;;;;;;;10.35;6.75;;;17.10;99.90;;;;;;4925498;29;20479;-73
2022/06/17 06:28:51;;;;;;;10.38;8.18;;;17.40;99.90;;;;;;4925129;29;20040;-74
2022/06/17 06:31:19;;;;;;;11.13;8.98;;;17.60;99.90;;;;;;4923189;29;20543;-74
2022/06/17 06:33:45;;;;;;;11.23;8.10;;;17.80;99.90;;;;;;4925894;29;20614;-74
2022/06/17 06:36:11;;;;;;;12.60;11.15;;;18.00;99.90;;;;;;4923674;29;20027;-74
2022/06/17 06:38:36;;;;;;;10.50;7.78;;;18.10;99.90;;;;;;4923204;29;20040;-72
2022/06/17 06:41:03;;;;;;;10.35;7.20;;;18.20;99.90;;;;;;4916596;29;20197;-73
2022/06/17 06:43:28;;;;;;;11.13;7.47;;;18.40;99.90;;;;;;4924997;29;20031;-73
2022/06/17 06:45:54;;;;;;;14.77;10.38;;;18.40;99.90;;;;;;4916111;29;20420;-73
2022/06/17 06:48:24;;;;;;;10.75;8.23;;;18.50;99.90;;;;;;4913543;29;20069;-73
2022/06/17 06:50:50;;;;;;;8.10;7.30;;;18.50;99.90;;;;;;4917213;29;20036;-73
2022/06/17 06:53:15;;;;;;;10.95;8.40;;;18.60;99.90;;;;;;4922052;29;20484;-73
2022/06/17 06:55:41;;;;;;;13.30;8.80;;;18.80;99.90;;;;;;4914311;29;20084;-73
2022/06/17 06:58:11;;;;;;;11.65;8.73;;;18.90;99.90;;;;;;4923479;29;20043;-73
2022/06/17 07:00:49;;;;;;;14.50;11.65;;;19.30;99.90;;;;;;4914696;29;20032;-72
2022/06/17 07:03:16;;;;;;;10.00;8.57;;;19.60;99.90;;;;;;4917145;29;20546;-73
2022/06/17 07:05:48;;;;;;;15.80;12.05;;;19.70;99.90;;;;;;4920940;29;20471;-73
2022/06/17 07:08:17;;;;;;;14.50;10.60;;;20.00;99.90;;;;;;4923443;29;20036;-73
2022/06/17 07:10:44;;;;;;;12.75;9.57;;;20.30;99.90;;;;;;4913778;29;20457;-73
2022/06/17 07:13:10;;;;;;;14.20;9.98;;;20.40;99.90;;;;;;4921310;29;20107;-73
2022/06/17 07:15:38;;;;;;;17.73;10.68;;;20.50;99.90;;;;;;4919619;29;20451;-73
2022/06/17 07:18:12;;;;;;;11.73;10.52;;;20.70;99.90;;;;;;4924842;29;20031;-73
2022/06/17 07:20:46;;;;;;;14.85;10.07;;;20.80;99.90;;;;;;4929646;29;20039;-73
2022/06/17 07:23:14;;;;;;;11.82;9.13;;;21.20;99.90;;;;;;4913827;29;20473;-72
2022/06/17 07:25:40;;;;;;;11.35;8.88;;;21.30;99.90;;;;;;4920092;29;20023;-71
2022/06/17 07:28:06;;;;;;;9.02;8.07;;;21.40;99.90;;;;;;4924994;29;20889;-72
2022/06/17 07:30:34;;;;;;;12.30;9.73;;;22.00;99.90;;;;;;4922854;29;20040;-71
2022/06/17 07:33:00;;;;;;;13.07;9.20;;;23.60;99.90;;;;;;4920468;29;20096;-72
2022/06/17 07:35:26;;;;;;;7.45;6.75;;;27.20;98.80;;;;;;4918115;29;20127;-71
2022/06/17 07:40:36;;;;;;;10.68;7.75;;;32.70;59.80;;;;;;4919054;29;20086;-72
2022/06/17 07:43:03;;;;;;;10.15;7.15;;;34.80;45.70;;;;;;4925744;29;20051;-72
2022/06/17 07:45:31;;;;;;;8.63;6.25;;;34.90;43.60;;;;;;4925070;29;20507;-72
2022/06/17 07:47:57;;;;;;;8.23;6.15;;;36.00;41.70;;;;;;4936054;29;20418;-72
2022/06/17 07:50:29;;;;;;;10.70;7.00;;;36.70;41.20;;;;;;4922226;29;20040;-72
2022/06/17 07:52:55;;;;;;;9.43;5.22;;;38.10;38.40;;;;;;4914061;29;20439;-71
2022/06/17 07:55:21;;;;;;;6.53;4.45;;;38.20;38.00;;;;;;4924554;29;20043;-70
2022/06/17 07:57:47;;;;;;;12.95;6.28;;;40.00;37.30;;;;;;4926361;29;20055;-71
2022/06/17 08:00:27;;;;;;;9.10;5.20;;;39.90;36.60;;;;;;4911854;29;20032;-73
2022/06/17 08:02:53;;;;;;;9.95;4.97;;;40.90;36.30;;;;;;4925397;29;20039;-71
2022/06/17 08:05:21;;;;;;;5.60;4.63;;;41.20;34.70;;;;;;4926145;29;20089;-72
2022/06/17 08:07:48;;;;;;;10.75;5.70;;;41.40;35.60;;;;;;4924995;29;20040;-71
2022/06/17 08:10:17;;;;;;;8.45;5.80;;;42.00;35.20;;;;;;4908826;29;20036;-72
2022/06/17 08:12:42;;;;;;;7.40;5.10;;;41.80;34.20;;;;;;4924136;29;20051;-73
2022/06/17 08:15:08;;;;;;;6.97;5.25;;;42.20;34.40;;;;;;4923248;29;20050;-73
2022/06/17 08:17:34;;;;;;;6.45;4.93;;;42.90;33.20;;;;;;4920401;29;20063;-72
2022/06/17 08:20:00;;;;;;;7.07;6.38;;;43.40;34.10;;;;;;4907058;29;20135;-73
2022/06/17 08:22:25;;;;;;;8.20;6.30;;;41.60;31.20;;;;;;4907003;29;20032;-73
2022/06/17 08:24:57;;;;;;;9.65;6.78;;;42.10;32.50;;;;;;4920729;29;20035;-73
2022/06/17 08:27:23;;;;;;;9.00;6.25;;;42.50;32.10;;;;;;4916073;29;20091;-72
2022/06/17 08:29:50;;;;;;;8.25;6.15;;;40.50;33.90;;;;;;4925087;29;20028;-72
2022/06/17 08:35:00;;;;;;;11.00;6.90;;;37.60;35.30;;;;;;4925610;29;20075;-71
2022/06/17 08:37:26;;;;;;;9.88;8.27;;;37.10;37.30;;;;;;4921425;29;20043;-72
2022/06/17 08:39:53;;;;;;;7.70;6.30;;;37.00;37.00;;;;;;4922510;29;20059;-72
2022/06/17 08:42:25;;;;;;;9.85;6.93;;;37.40;41.80;;;;;;4927241;29;20044;-72
2022/06/17 08:45:23;;;;;;;10.07;8.50;;;37.80;38.90;;;;;;4944202;29;20649;-71
2022/06/17 08:47:51;;;;;;;8.35;7.03;;;37.60;36.20;;;;;;4909021;29;20291;-72
2022/06/17 08:50:45;;;;;;;8.13;6.85;;;38.40;37.90;;;;;;4925039;29;20081;-71
2022/06/17 08:53:30;;;;;;;8.55;6.85;;;38.10;37.30;;;;;;4923657;29;20039;-71
2022/06/17 08:56:14;;;;;;;7.47;5.00;;;39.00;35.10;;;;;;4925078;29;20043;-72
2022/06/17 08:59:13;;;;;;;9.55;6.10;;;38.60;35.40;;;;;;4924755;29;20040;-72
2022/06/17 09:02:03;;;;;;;6.20;5.22;;;39.40;35.60;;;;;;4915503;29;20028;-72
2022/06/17 09:04:47;;;;;;;6.93;4.60;;;39.40;32.80;;;;;;4923080;29;20654;-72
2022/06/17 09:07:29;;;;;;;6.53;4.88;;;39.00;34.00;;;;;;4923812;29;20040;-72
2022/06/17 09:10:14;;;;;;;6.78;4.60;;;37.80;31.20;;;;;;4919620;29;20107;-71
2022/06/17 09:12:56;;;;;;;6.82;3.65;;;37.10;33.30;;;;;;4593605;28;9999607;-72
2022/06/17 09:15:33;;;;;;;7.60;4.05;;;35.50;35.40;;;;;;4916738;29;20578;-73
2022/06/17 09:18:08;;;;;;;5.00;3.63;;;35.60;35.60;;;;;;4923575;29;20082;-72
2022/06/17 09:20:40;;;;;;;7.07;4.22;;;35.80;39.70;;;;;;4922207;29;20031;-72
2022/06/17 09:23:09;;;;;;;6.22;3.97;;;35.40;38.70;;;;;;4923775;29;20059;-72
2022/06/17 09:25:48;;;;;;;4.75;3.88;;;34.90;37.50;;;;;;4924487;29;20034;-72
2022/06/17 09:28:25;;;;;;;7.55;3.90;;;35.00;37.40;;;;;;4924492;29;20083;-72
2022/06/17 09:31:01;;;;;;;5.10;4.15;;;35.90;38.80;;;;;;4917457;29;20030;-71
2022/06/17 09:33:45;;;;;;;5.07;4.00;;;35.70;37.50;;;;;;4919465;29;20575;-72
2022/06/17 09:36:17;;;;;;;5.90;3.53;;;35.40;40.70;;;;;;4918533;29;20407;-72
2022/06/17 09:38:54;;;;;;;5.50;4.00;;;35.90;42.30;;;;;;4924342;29;20039;-72
2022/06/17 09:41:33;;;;;;;4.93;4.53;;;36.20;40.00;;;;;;4924738;29;20054;-73
2022/06/17 09:44:14;;;;;;;7.95;5.50;;;35.20;37.80;;;;;;4923511;29;20447;-72
2022/06/17 09:46:50;;;;;;;6.78;5.55;;;33.60;40.80;;;;;;4924514;29;20107;-72
2022/06/17 09:49:35;;;;;;;11.00;5.85;;;31.70;45.10;;;;;;4928111;29;20055;-72
2022/06/17 09:52:06;;;;;;;8.23;6.53;;;31.00;49.50;;;;;;4927629;29;20044;-72
2022/06/17 09:54:55;;;;;;;9.82;6.07;;;31.80;46.30;;;;;;4929208;29;20043;-72
2022/06/17 09:57:52;;;;;;;7.40;5.60;;;32.70;49.40;;;;;;4924420;29;20044;-71
2022/06/17 10:00:21;;;;;;;9.23;5.95;;;34.00;46.70;;;;;;4902326;29;20475;-73
2022/06/17 10:02:51;;;;;;;7.00;5.60;;;34.20;47.80;;;;;;4909304;29;20032;-72
2022/06/17 10:05:34;;;;;;;5.82;4.65;;;34.50;43.10;;;;;;4914779;29;20027;-73
2022/06/17 10:08:40;;;;;;;7.65;5.57;;;35.10;45.00;;;;;;4909558;29;20076;-74
2022/06/17 10:11:47;;;;;;;6.05;5.03;;;34.90;41.60;;;;;;4898967;29;20039;-73
2022/06/17 10:14:27;;;;;;;5.20;4.40;;;35.10;40.50;;;;;;4908795;29;20503;-74
2022/06/17 10:20:22;;;;;;;3.95;3.60;;;35.90;46.70;;;;;;4909082;29;20186;-74
2022/06/17 10:23:01;;;;;;;7.68;3.97;;;36.60;42.60;;;;;;4878867;29;20041;-74
2022/06/17 10:26:03;;;;;;;5.38;3.55;;;36.60;42.10;;;;;;4919846;29;20058;-74
2022/06/17 10:28:57;;;;;;;5.68;3.35;;;36.30;40.00;;;;;;4925603;29;20102;-74
2022/06/17 10:31:45;;;;;;;6.93;4.18;;;35.40;42.10;;;;;;4926275;29;20617;-73
2022/06/17 10:34:21;;;;;;;6.40;3.67;;;34.80;46.50;;;;;;4918941;29;20039;-74
2022/06/17 10:36:52;;;;;;;4.78;2.83;;;34.00;44.70;;;;;;4926391;29;20070;-74
2022/06/17 10:39:20;;;;;;;12.73;3.53;;;34.10;45.10;;;;;;4927451;29;20448;-74
2022/06/17 10:41:46;;;;;;;5.30;2.72;;;34.50;49.90;;;;;;4922000;29;20028;-74
2022/06/17 10:44:15;;;;;;;5.00;3.00;;;35.00;44.90;;;;;;4921133;29;20070;-73
2022/06/17 10:47:19;;;;;;;5.78;2.92;;;35.90;48.60;;;;;;4921310;29;20043;-74
2022/06/17 10:49:52;;;;;;;9.18;2.90;;;36.30;43.60;;;;;;4911944;29;20111;-73
2022/06/17 10:52:23;;;;;;;2.67;2.45;;;36.40;41.10;;;;;;4924527;29;20043;-74
2022/06/17 10:54:51;;;;;;;3.92;1.80;;;36.30;37.60;;;;;;4925125;29;20035;-73
2022/06/17 10:57:27;;;;;;;2.80;2.42;;;36.60;42.70;;;;;;4582182;28;10000233;-74
2022/06/17 10:59:53;;;;;;;4.88;2.53;;;35.70;43.40;;;;;;4921449;29;20036;-73
2022/06/17 11:02:23;;;;;;;6.10;2.80;;;35.50;42.30;;;;;;4926240;29;20416;-75
2022/06/17 11:05:00;;;;;;;9.65;2.75;;;35.80;40.10;;;;;;4926104;29;20622;-74
2022/06/17 11:07:32;;;;;;;4.40;2.13;;;35.30;39.90;;;;;;4917544;29;20036;-74
2022/06/17 11:10:14;;;;;;;5.07;2.30;;;35.40;42.90;;;;;;4922823;29;20042;-73
2022/06/17 11:12:55;;;;;;;6.53;2.17;;;35.50;45.80;;;;;;4926562;29;20056;-74
2022/06/17 11:15:26;;;;;;;3.20;2.10;;;36.20;41.40;;;;;;4924760;29;20075;-74
2022/06/17 11:17:55;;;;;;;4.90;2.00;;;36.30;35.40;;;;;;4926111;29;20051;-74
2022/06/17 11:21:12;;;;;;;4.25;1.90;;;35.50;38.50;;;;;;4925943;29;20495;-73
2022/06/17 11:23:43;;;;;;;3.97;1.90;;;35.80;37.70;;;;;;4907328;29;20702;-74
2022/06/17 11:26:38;;;;;;;4.13;2.20;;;35.40;40.00;;;;;;4922960;29;20825;-73
2022/06/17 11:29:20;;;;;;;3.13;2.15;;;35.50;40.70;;;;;;4905098;29;20048;-74
2022/06/17 11:31:49;;;;;;;7.78;2.03;;;35.60;39.20;;;;;;4925298;29;20039;-74
2022/06/17 11:34:25;;;;;;;3.60;2.17;;;35.30;44.90;;;;;;4923741;29;20063;-74
2022/06/17 11:36:58;;;;;;;1.88;1.75;;;34.50;38.90;;;;;;4921251;29;20035;-74
2022/06/17 11:39:31;;;;;;;2.67;2.22;;;33.60;41.80;;;;;;4917971;29;20036;-73
2022/06/17 11:41:58;;;;;;;3.90;2.28;;;33.30;42.20;;;;;;4910926;29;20118;-74
2022/06/17 11:44:24;;;;;;;7.43;2.55;;;33.10;44.00;;;;;;4926255;29;20059;-73
2022/06/17 11:47:02;;;;;;;3.38;2.35;;;33.10;48.10;;;;;;4924665;29;20027;-72
2022/06/17 11:49:34;;;;;;;3.00;1.92;;;33.10;47.40;;;;;;4919131;29;20035;-73
2022/06/17 11:52:04;;;;;;;5.22;2.10;;;32.90;45.80;;;;;;4916541;29;20040;-72
2022/06/17 11:54:38;;;;;;;2.70;1.97;;;32.70;44.20;;;;;;4923356;29;20036;-74
2022/06/17 11:57:21;;;;;;;5.00;2.15;;;32.30;46.10;;;;;;4922913;29;20024;-75
2022/06/17 11:59:52;;;;;;;3.20;2.35;;;32.50;45.80;;;;;;4911742;29;20059;-73
2022/06/17 12:02:18;;;;;;;4.07;2.40;;;32.60;49.30;;;;;;4924646;29;20063;-73
2022/06/17 12:04:48;;;;;;;4.15;1.92;;;32.50;48.80;;;;;;4920070;29;20043;-73
2022/06/17 12:07:20;;;;;;;2.92;1.70;;;32.50;44.40;;;;;;4920923;29;20044;-73
2022/06/17 12:09:51;;;;;;;2.70;2.25;;;32.60;46.20;;;;;;4916574;29;20484;-73
2022/06/17 12:12:19;;;;;;;2.97;1.90;;;32.50;59.80;;;;;;4908894;29;20043;-76
2022/06/17 12:14:50;;;;;;;5.60;2.33;;;32.70;52.90;;;;;;4904120;29;20496;-73
2022/06/17 12:17:16;;;;;;;;;;;32.60;47.30;;;;;;4910736;29;20400;-73
2022/06/17 12:19:42;;;;;;;2.42;2.15;;;32.60;50.20;;;;;;4913839;29;19919;-73
2022/06/17 12:22:25;;;;;;;4.35;1.80;;;32.60;46.00;;;;;;4919450;29;20047;-73
2022/06/17 12:25:15;;;;;;;4.50;2.22;;;32.40;47.60;;;;;;4918785;29;20607;-73
2022/06/17 12:27:51;;;;;;;4.45;2.00;;;31.90;48.60;;;;;;4917124;29;20063;-73
2022/06/17 12:30:23;;;;;;;4.68;2.15;;;31.80;48.40;;;;;;4914592;29;20038;-73
2022/06/17 12:33:11;;;;;;;7.05;1.85;;;31.80;53.20;;;;;;4906354;29;20048;-73
2022/06/17 12:35:37;;;;;;;3.40;2.42;;;31.50;50.50;;;;;;4900343;29;20064;-73
2022/06/17 12:38:31;;;;;;;3.97;2.22;;;31.60;50.60;;;;;;4905993;29;20777;-73
2022/06/17 12:40:56;;;;;;;11.63;2.20;;;31.50;46.60;;;;;;4908331;29;20236;-72
2022/06/17 12:43:37;;;;;;;4.18;2.17;;;31.40;55.40;;;;;;4907261;29;20601;-73
2022/06/17 12:46:17;;;;;;;13.70;2.72;;;31.70;51.00;;;;;;4908696;29;20663;-73
2022/06/17 12:55:31;;;;;;;6.60;2.55;;;31.10;46.40;;;;;;4907925;29;20091;-73
2022/06/17 12:58:28;;;;;;;5.10;2.60;;;31.00;52.70;;;;;;4911842;29;20031;-74
2022/06/17 13:01:02;;;;;;;2.50;2.30;;;31.00;48.60;;;;;;4573694;28;10000456;-73
2022/06/17 13:03:51;;;;;;;4.45;2.70;;;30.90;50.50;;;;;;4901289;29;20075;-74
2022/06/17 13:06:29;;;;;;;4.03;2.95;;;30.70;52.30;;;;;;4908359;29;20038;-72
2022/06/17 13:09:08;;;;;;;5.55;2.40;;;30.70;59.20;;;;;;4914126;29;20031;-73
2022/06/17 13:11:56;;;;;;;4.32;2.13;;;30.60;51.20;;;;;;4910110;29;20048;-74
2022/06/17 13:14:49;;;;;;;5.20;2.80;;;30.60;54.40;;;;;;4906168;29;20131;-72
2022/06/17 13:17:26;;;;;;;3.25;2.28;;;30.50;55.20;;;;;;4906146;29;20031;-73
2022/06/17 13:20:11;;;;;;;6.90;2.60;;;30.40;55.30;;;;;;4916830;29;20035;-73
2022/06/17 13:22:49;;;;;;;4.30;2.63;;;30.10;52.90;;;;;;4916989;29;20032;-72
2022/06/17 13:25:35;;;;;;;3.97;2.30;;;30.20;56.60;;;;;;4919349;29;20671;-72